createdAt,value
2019-02-05T00:01:36.809Z,5.47
2019-02-05T00:04:06.785Z,5.52
2019-02-05T00:06:36.263Z,5.57
2019-02-05T00:09:09.550Z,5.58
2019-02-05T00:11:38.894Z,5.47
2019-02-05T00:14:08.349Z,5.42
2019-02-05T00:16:37.791Z,5.48
2019-02-05T00:19:07.146Z,5.54
2019-02-05T00:21:36.585Z,5.58
2019-02-05T00:24:06.138Z,5.49
2019-02-05T00:26:35.505Z,5.52
2019-02-05T00:29:04.960Z,5.54
2019-02-05T00:31:34.692Z,5.67
2019-02-05T00:34:04.359Z,5.61
2019-02-05T00:36:33.690Z,5.58
2019-02-05T00:39:04.291Z,5.55
2019-02-05T00:41:33.648Z,5.64
2019-02-05T00:44:02.995Z,5.64
2019-02-05T00:46:32.632Z,5.70
2019-02-05T00:49:01.962Z,5.69
2019-02-05T00:51:31.291Z,5.63
2019-02-05T00:54:00.685Z,5.62
2019-02-05T00:56:30.101Z,5.75
2019-02-05T00:58:59.457Z,5.71
2019-02-05T01:01:29.098Z,5.69
2019-02-05T01:03:58.453Z,5.70
2019-02-05T01:06:27.794Z,5.83
2019-02-05T01:08:57.147Z,5.76
2019-02-05T01:11:26.476Z,5.57
2019-02-05T01:13:55.892Z,5.51
2019-02-05T01:16:25.217Z,5.57
2019-02-05T01:18:54.553Z,5.56
2019-02-05T01:21:23.870Z,5.74
2019-02-05T01:23:53.231Z,5.92
2019-02-05T01:26:29.500Z,5.79
2019-02-05T01:28:53.690Z,5.84
2019-02-05T01:31:23.051Z,5.77
2019-02-05T01:33:52.375Z,5.71
2019-02-05T01:36:21.712Z,5.71
2019-02-05T01:38:51.035Z,5.57
2019-02-05T01:41:20.451Z,5.62
2019-02-05T01:43:50.365Z,5.67
2019-02-05T01:46:19.740Z,5.66
2019-02-05T01:48:49.113Z,5.63
2019-02-05T01:51:18.482Z,5.56
2019-02-05T01:53:47.820Z,5.60
2019-02-05T01:56:17.179Z,5.51
2019-02-05T01:58:46.834Z,5.48
2019-02-05T02:01:16.203Z,5.51
2019-02-05T02:03:45.693Z,5.52
2019-02-05T02:06:15.038Z,5.39
2019-02-05T02:08:44.372Z,5.52
2019-02-05T02:11:13.689Z,5.58
2019-02-05T02:13:43.310Z,5.74
2019-02-05T02:16:12.748Z,5.67
2019-02-05T02:18:42.094Z,5.75
2019-02-05T02:21:11.449Z,5.99
2019-02-05T02:23:40.802Z,5.92
2019-02-05T02:26:10.155Z,5.76
2019-02-05T02:28:39.901Z,5.73
2019-02-05T02:31:09.226Z,5.77
2019-02-05T02:33:38.673Z,5.79
2019-02-05T02:36:08.031Z,5.99
2019-02-05T02:38:37.363Z,6.10
2019-02-05T02:41:06.738Z,5.95
2019-02-05T02:43:36.448Z,6.00
2019-02-05T02:46:06.090Z,5.97
2019-02-05T02:48:35.435Z,5.87
2019-02-05T02:51:04.779Z,5.81
2019-02-05T02:53:34.090Z,5.71
2019-02-05T02:56:03.439Z,5.71
2019-02-05T02:58:33.169Z,5.56
2019-02-05T03:01:02.524Z,5.44
2019-02-05T03:03:31.879Z,5.56
2019-02-05T03:06:01.239Z,5.73
2019-02-05T03:08:30.588Z,5.76
2019-02-05T03:10:59.928Z,5.56
2019-02-05T03:13:29.282Z,5.43
2019-02-05T03:15:58.625Z,5.48
2019-02-05T03:18:27.951Z,5.63
2019-02-05T03:20:57.314Z,5.70
2019-02-05T03:23:26.692Z,5.76
2019-02-05T03:25:56.033Z,5.95
2019-02-05T03:28:25.368Z,5.96
2019-02-05T03:30:54.721Z,5.78
2019-02-05T03:33:24.648Z,5.64
2019-02-05T03:35:53.952Z,5.49
2019-02-05T03:38:23.285Z,5.47
2019-02-05T03:41:17.533Z,5.79
2019-02-05T03:43:47.251Z,5.69
2019-02-05T03:46:17.915Z,5.59
2019-02-05T03:48:49.055Z,5.74
2019-02-05T03:51:56.969Z,5.88
2019-02-05T03:55:22.049Z,5.85
2019-02-05T03:58:42.128Z,5.85
2019-02-05T04:01:48.132Z,5.68
2019-02-05T04:05:08.988Z,5.67
2019-02-05T04:08:18.411Z,5.62
2019-02-05T04:11:36.066Z,5.68
2019-02-05T04:14:46.385Z,5.73
2019-02-05T04:17:37.049Z,5.73
2019-02-05T04:20:51.952Z,5.67
2019-02-05T04:24:06.996Z,5.68
2019-02-05T04:27:22.067Z,5.70
2019-02-05T04:30:32.367Z,5.85
2019-02-05T04:33:45.546Z,5.57
2019-02-05T04:37:08.899Z,5.50
2019-02-05T04:40:06.772Z,5.55
2019-02-05T04:43:05.661Z,5.44
2019-02-05T04:46:03.996Z,5.35
2019-02-05T04:49:20.213Z,5.21
2019-02-05T04:52:22.537Z,5.17
2019-02-05T04:55:17.799Z,5.20
2019-02-05T04:58:07.860Z,5.21
2019-02-05T05:00:56.729Z,5.19
2019-02-05T05:03:59.196Z,4.93
2019-02-05T05:07:19.368Z,4.80
2019-02-05T05:09:50.671Z,4.79
2019-02-05T05:12:20.122Z,4.83
2019-02-05T05:14:49.632Z,4.96
2019-02-05T05:17:19.081Z,5.01
2019-02-05T05:19:48.544Z,4.80
2019-02-05T05:22:18.035Z,4.75
2019-02-05T05:24:47.866Z,4.87
2019-02-05T05:27:19.303Z,4.81
2019-02-05T05:29:48.899Z,4.98
2019-02-05T05:32:18.869Z,5.10
2019-02-05T05:34:48.288Z,5.02
2019-02-05T05:37:15.883Z,5.15
2019-02-05T05:39:45.281Z,5.17
2019-02-05T05:42:14.711Z,4.98
2019-02-05T05:44:44.450Z,4.93
2019-02-05T05:47:13.798Z,4.97
2019-02-05T05:49:43.259Z,5.08
2019-02-05T05:52:12.594Z,5.12
2019-02-05T05:54:41.985Z,5.03
2019-02-05T05:57:11.307Z,5.02
2019-02-05T05:59:40.662Z,5.06
2019-02-05T06:02:10.032Z,4.81
2019-02-05T06:04:39.409Z,4.72
2019-02-05T06:07:09.149Z,4.74
2019-02-05T06:09:38.934Z,4.71
2019-02-05T06:12:08.302Z,4.70
2019-02-05T06:14:37.677Z,4.69
2019-02-05T06:17:07.276Z,4.81
2019-02-05T06:19:36.643Z,4.74
2019-02-05T06:22:05.946Z,4.88
2019-02-05T06:24:35.280Z,4.76
2019-02-05T06:27:04.742Z,4.72
2019-02-05T06:29:34.123Z,4.94
2019-02-05T06:32:03.840Z,4.97
2019-02-05T06:34:33.208Z,4.92
2019-02-05T06:37:02.617Z,5.14
2019-02-05T06:39:32.143Z,5.16
2019-02-05T06:42:01.560Z,5.28
2019-02-05T06:44:30.925Z,5.14
2019-02-05T06:47:00.476Z,5.11
2019-02-05T06:49:29.833Z,5.06
2019-02-05T06:51:59.203Z,5.17
2019-02-05T06:54:28.792Z,5.47
2019-02-05T06:56:58.173Z,5.37
2019-02-05T06:59:27.902Z,5.35
2019-02-05T07:01:57.245Z,5.42
2019-02-05T07:04:26.876Z,5.48
2019-02-05T07:06:56.273Z,5.45
2019-02-05T07:09:25.668Z,5.31
2019-02-05T07:11:55.034Z,5.16
2019-02-05T07:14:24.385Z,5.22
2019-02-05T07:16:53.723Z,5.22
2019-02-05T07:19:23.114Z,5.13
2019-02-05T07:21:52.908Z,5.10
2019-02-05T07:24:22.536Z,5.21
2019-02-05T07:26:51.890Z,5.29
2019-02-05T07:29:21.317Z,5.40
2019-02-05T07:31:50.706Z,5.99
2019-02-05T07:34:21.394Z,6.23
2019-02-05T07:36:51.305Z,5.87
2019-02-05T07:39:20.671Z,5.65
2019-02-05T07:41:50.041Z,5.43
2019-02-05T07:44:19.417Z,5.51
2019-02-05T07:46:48.833Z,5.41
2019-02-05T07:49:18.408Z,5.51
2019-02-05T07:51:47.835Z,5.35
2019-02-05T07:54:17.453Z,5.35
2019-02-05T07:56:46.980Z,5.41
2019-02-05T07:59:16.322Z,5.39
2019-02-05T08:01:45.820Z,5.40
2019-02-05T08:04:15.185Z,5.36
2019-02-05T08:06:45.082Z,5.37
2019-02-05T08:09:14.445Z,5.36
2019-02-05T08:11:43.911Z,5.36
2019-02-05T08:14:13.786Z,5.48
2019-02-05T08:16:43.138Z,5.44
2019-02-05T08:19:12.519Z,5.40
2019-02-05T08:21:41.884Z,5.55
2019-02-05T08:24:11.225Z,5.71
2019-02-05T08:26:40.614Z,5.62
2019-02-05T08:29:21.153Z,5.63
2019-02-05T08:31:41.486Z,5.73
2019-02-05T08:34:11.154Z,5.78
2019-02-05T08:36:40.626Z,5.82
2019-02-05T08:39:10.974Z,5.86
2019-02-05T08:41:40.386Z,5.83
2019-02-05T08:44:10.011Z,5.67
2019-02-05T08:46:39.577Z,5.67
2019-02-05T08:49:08.880Z,5.88
2019-02-05T08:51:38.391Z,5.84
2019-02-05T08:54:07.735Z,5.91
2019-02-05T08:56:37.130Z,5.96
2019-02-05T08:59:06.855Z,6.07
2019-02-05T09:01:36.490Z,5.95
2019-02-05T09:04:05.955Z,6.02
2019-02-05T09:06:35.557Z,6.05
2019-02-05T09:09:08.288Z,6.13
2019-02-05T09:11:37.687Z,6.27
2019-02-05T09:14:11.183Z,6.35
2019-02-05T09:16:38.105Z,6.37
2019-02-05T09:19:07.561Z,6.34
2019-02-05T09:21:36.918Z,6.48
2019-02-05T09:24:06.401Z,6.49
2019-02-05T09:26:35.777Z,6.71
2019-02-05T09:29:05.111Z,6.81
2019-02-05T09:31:34.518Z,6.78
2019-02-05T09:34:04.091Z,6.76
2019-02-05T09:36:33.419Z,6.66
2019-02-05T09:39:03.101Z,6.64
2019-02-05T09:41:32.539Z,6.70
2019-02-05T09:44:02.124Z,6.80
2019-02-05T09:46:31.458Z,6.73
2019-02-05T09:49:00.983Z,6.67
2019-02-05T09:51:30.472Z,6.87
2019-02-05T09:53:59.796Z,6.82
2019-02-05T09:56:29.133Z,7.02
2019-02-05T09:58:58.551Z,6.97
2019-02-05T10:01:27.897Z,7.00
2019-02-05T10:03:57.248Z,7.07
2019-02-05T10:06:26.947Z,7.12
2019-02-05T10:08:56.434Z,7.17
2019-02-05T10:11:25.774Z,7.27
2019-02-05T10:13:55.227Z,7.09
2019-02-05T10:16:24.700Z,7.13
2019-02-05T10:18:54.142Z,7.29
2019-02-05T10:21:23.583Z,7.47
2019-02-05T10:23:53.322Z,7.62
2019-02-05T10:26:23.149Z,7.94
2019-02-05T10:28:52.603Z,8.15
2019-02-05T10:31:21.994Z,8.04
2019-02-05T10:33:55.399Z,8.19
2019-02-05T10:36:22.887Z,8.40
2019-02-05T10:38:52.566Z,8.18
2019-02-05T10:41:22.049Z,8.31
2019-02-05T10:43:51.408Z,8.55
2019-02-05T10:46:20.812Z,8.90
2019-02-05T10:48:50.219Z,9.46
2019-02-05T10:51:19.684Z,10.10
2019-02-05T10:53:49.422Z,10.70
2019-02-05T10:56:18.776Z,11.26
2019-02-05T10:58:50.669Z,11.56
2019-02-05T11:01:20.061Z,12.03
2019-02-05T11:03:50.912Z,12.45
2019-02-05T11:06:20.700Z,12.88
2019-02-05T11:08:50.398Z,13.11
2019-02-05T11:11:19.880Z,13.17
2019-02-05T11:13:49.284Z,13.62
2019-02-05T11:16:28.113Z,13.70
2019-02-05T11:19:10.984Z,13.43
2019-02-05T11:21:41.644Z,13.48
2019-02-05T11:24:18.622Z,13.85
2019-02-05T11:26:52.763Z,14.02
2019-02-05T11:29:26.924Z,14.07
2019-02-05T11:31:58.107Z,14.15
2019-02-05T11:34:27.565Z,13.97
2019-02-05T11:36:56.981Z,13.81
2019-02-05T11:39:26.455Z,13.97
2019-02-05T11:41:56.229Z,13.66
2019-02-05T11:44:27.136Z,13.94
2019-02-05T11:46:56.621Z,13.75
2019-02-05T11:49:27.425Z,13.58
2019-02-05T11:51:56.787Z,13.95
2019-02-05T11:54:26.219Z,13.77
2019-02-05T11:56:55.545Z,13.78
2019-02-05T11:59:24.912Z,13.74
2019-02-05T12:01:54.334Z,13.69
2019-02-05T12:04:23.703Z,13.92
2019-02-05T12:06:53.050Z,14.26
2019-02-05T12:09:25.109Z,14.60
2019-02-05T12:11:54.510Z,14.67
2019-02-05T12:14:23.905Z,14.55
2019-02-05T12:16:53.472Z,14.60
2019-02-05T12:19:22.867Z,14.66
2019-02-05T12:21:52.720Z,14.54
2019-02-05T12:24:22.078Z,14.63
2019-02-05T12:26:51.389Z,14.69
2019-02-05T12:29:20.733Z,14.40
2019-02-05T12:31:50.223Z,14.51
2019-02-05T12:34:19.613Z,14.49
2019-02-05T12:36:49.420Z,14.61
2019-02-05T12:39:21.657Z,14.68
2019-02-05T12:41:51.020Z,14.84
2019-02-05T12:44:20.389Z,15.00
2019-02-05T12:46:50.001Z,15.09
2019-02-05T12:49:19.383Z,15.24
2019-02-05T12:51:48.911Z,15.02
2019-02-05T12:54:18.229Z,15.01
2019-02-05T12:56:47.572Z,14.97
2019-02-05T12:59:16.926Z,14.77
2019-02-05T13:01:46.275Z,15.14
2019-02-05T13:04:15.725Z,15.18
2019-02-05T13:06:45.168Z,15.06
2019-02-05T13:09:14.739Z,14.96
2019-02-05T13:11:45.174Z,14.78
2019-02-05T13:14:14.691Z,14.88
2019-02-05T13:16:44.047Z,14.59
2019-02-05T13:19:13.404Z,14.60
2019-02-05T13:21:42.739Z,14.42
2019-02-05T13:24:12.301Z,14.24
2019-02-05T13:26:42.617Z,14.09
2019-02-05T13:30:42.503Z,14.16
2019-02-05T13:33:13.313Z,14.05
2019-02-05T13:35:42.933Z,13.88
2019-02-05T13:38:12.304Z,13.81
2019-02-05T13:40:41.703Z,13.70
2019-02-05T13:43:11.258Z,13.86
2019-02-05T13:45:42.047Z,13.95
2019-02-05T13:48:11.712Z,13.54
2019-02-05T13:50:41.220Z,13.20
2019-02-05T13:53:10.835Z,13.18
2019-02-05T13:55:42.619Z,13.27
2019-02-05T13:58:12.755Z,13.39
2019-02-05T14:00:53.287Z,13.25
2019-02-05T14:03:22.983Z,13.05
2019-02-05T14:05:52.400Z,12.98
2019-02-05T14:08:21.804Z,12.98
2019-02-05T14:10:53.789Z,12.61
2019-02-05T14:13:23.198Z,12.38
2019-02-05T14:15:54.052Z,11.83
2019-02-05T14:18:23.431Z,11.72
2019-02-05T14:20:52.961Z,11.37
2019-02-05T14:23:22.384Z,11.40
2019-02-05T14:25:51.808Z,11.29
2019-02-05T14:28:21.322Z,11.10
2019-02-05T14:30:55.689Z,11.05
2019-02-05T14:33:26.634Z,10.72
2019-02-05T14:35:56.110Z,10.50
2019-02-05T14:38:26.112Z,10.33
2019-02-05T14:40:55.629Z,10.00
2019-02-05T14:43:25.667Z,9.89
2019-02-05T14:45:55.142Z,9.69
2019-02-05T14:48:24.552Z,9.44
2019-02-05T14:50:54.040Z,9.18
2019-02-05T14:53:23.423Z,9.22
2019-02-05T14:55:52.783Z,9.10
2019-02-05T14:58:22.704Z,9.08
2019-02-05T15:00:52.095Z,8.91
2019-02-05T15:03:21.756Z,8.86
2019-02-05T15:05:51.123Z,8.54
2019-02-05T15:08:20.900Z,8.61
2019-02-05T15:10:50.665Z,8.47
2019-02-05T15:13:20.030Z,8.33
2019-02-05T15:15:52.586Z,8.16
2019-02-05T15:18:25.018Z,8.07
2019-02-05T15:21:00.682Z,7.98
2019-02-05T15:23:30.024Z,7.94
2019-02-05T15:25:59.402Z,7.92
2019-02-05T15:28:28.782Z,7.88
2019-02-05T15:30:58.111Z,7.70
2019-02-05T15:33:36.499Z,6.62
2019-02-05T15:36:22.073Z,7.60
2019-02-05T15:38:51.545Z,7.58
2019-02-05T15:41:20.935Z,7.59
2019-02-05T15:43:50.265Z,7.44
2019-02-05T15:46:19.901Z,7.26
2019-02-05T15:48:50.904Z,7.20
2019-02-05T15:51:22.721Z,7.05
2019-02-05T15:53:52.141Z,6.95
2019-02-05T15:56:21.504Z,6.91
2019-02-05T15:58:50.847Z,6.92
2019-02-05T16:01:20.299Z,6.87
2019-02-05T16:03:49.710Z,6.89
2019-02-05T16:06:19.086Z,6.89
2019-02-05T16:08:48.524Z,6.78
2019-02-05T16:11:17.957Z,6.57
2019-02-05T16:13:47.364Z,6.54
2019-02-05T16:16:16.797Z,6.54
2019-02-05T16:18:46.448Z,6.50
2019-02-05T16:21:15.808Z,6.45
2019-02-05T16:23:45.166Z,6.37
2019-02-05T16:26:14.579Z,6.33
2019-02-05T16:28:43.923Z,6.42
2019-02-05T16:31:13.322Z,6.38
2019-02-05T16:33:43.061Z,6.34
2019-02-05T16:36:12.477Z,6.40
2019-02-05T16:38:41.895Z,6.38
2019-02-05T16:41:11.251Z,6.30
2019-02-05T16:43:40.590Z,6.23
2019-02-05T16:46:09.962Z,6.24
2019-02-05T16:48:39.590Z,6.31
2019-02-05T16:51:09.030Z,6.28
2019-02-05T16:53:38.372Z,6.26
2019-02-05T16:56:07.697Z,6.24
2019-02-05T16:58:37.111Z,6.18
2019-02-05T17:01:06.566Z,6.21
2019-02-05T17:03:36.381Z,6.22
2019-02-05T17:06:06.063Z,6.18
2019-02-05T17:08:35.556Z,6.27
2019-02-05T17:11:04.908Z,6.40
2019-02-05T17:13:34.288Z,6.40
2019-02-05T17:16:03.619Z,6.38
2019-02-05T17:18:33.370Z,6.38
2019-02-05T17:21:04.602Z,6.35
2019-02-05T17:23:33.952Z,6.23
2019-02-05T17:26:03.322Z,6.24
2019-02-05T17:28:32.800Z,6.20
2019-02-05T17:31:02.165Z,6.24
2019-02-05T17:33:31.655Z,6.24
2019-02-05T17:36:01.025Z,6.21
2019-02-05T17:38:30.371Z,6.31
2019-02-05T17:40:59.722Z,6.42
2019-02-05T17:43:29.101Z,6.40
2019-02-05T17:45:59.552Z,6.36
2019-02-05T17:48:28.999Z,6.35
2019-02-05T17:50:58.314Z,6.30
2019-02-05T17:53:27.638Z,6.32
2019-02-05T17:55:56.991Z,6.34
2019-02-05T17:58:26.451Z,6.41
2019-02-05T18:01:00.341Z,6.47
2019-02-05T18:03:29.837Z,6.56
2019-02-05T18:05:59.239Z,6.67
2019-02-05T18:08:28.778Z,6.56
2019-02-05T18:11:00.273Z,6.54
2019-02-05T18:13:38.792Z,6.56
2019-02-05T18:16:12.538Z,6.58
2019-02-05T18:18:41.930Z,6.62
2019-02-05T18:21:12.867Z,6.66
2019-02-05T18:23:42.214Z,6.73
2019-02-05T18:26:30.721Z,6.70
2019-02-05T18:29:00.414Z,6.64
2019-02-05T18:31:29.751Z,6.64
2019-02-05T18:33:59.106Z,6.54
2019-02-05T18:36:28.540Z,6.57
2019-02-05T18:38:58.288Z,6.56
2019-02-05T18:41:27.685Z,6.56
2019-02-05T18:43:57.174Z,6.52
2019-02-05T18:46:26.623Z,6.48
2019-02-05T18:49:04.587Z,6.56
2019-02-05T18:51:43.103Z,6.41
2019-02-05T18:54:13.922Z,6.37
2019-02-05T18:56:43.371Z,6.39
2019-02-05T18:59:12.864Z,6.44
2019-02-05T19:01:42.558Z,6.38
2019-02-05T19:04:12.174Z,6.31
2019-02-05T19:06:41.552Z,6.29
2019-02-05T19:09:14.154Z,6.36
2019-02-05T19:11:43.511Z,6.35
2019-02-05T19:14:12.885Z,6.34
2019-02-05T19:16:42.229Z,6.31
2019-02-05T19:19:15.234Z,6.36
2019-02-05T19:21:43.008Z,6.41
2019-02-05T19:24:31.618Z,6.39
2019-02-05T19:27:01.138Z,6.47
2019-02-05T19:29:30.802Z,6.49
2019-02-05T19:32:00.346Z,6.46
2019-02-05T19:34:30.154Z,6.44
2019-02-05T19:36:59.539Z,6.44
2019-02-05T19:39:28.970Z,6.49
2019-02-05T19:41:58.358Z,6.45
2019-02-05T19:44:27.992Z,6.39
2019-02-05T19:47:14.496Z,7.78
2019-02-05T19:49:47.366Z,8.76
2019-02-05T19:52:16.716Z,8.66
2019-02-05T19:54:46.083Z,8.61
2019-02-05T19:57:15.415Z,8.49
2019-02-05T19:59:45.183Z,8.60
2019-02-05T20:02:14.495Z,8.64
2019-02-05T20:04:43.866Z,9.00
2019-02-05T20:07:13.576Z,8.71
2019-02-05T20:09:42.917Z,8.22
2019-02-05T20:12:12.238Z,8.36
2019-02-05T20:14:41.956Z,8.58
2019-02-05T20:17:11.383Z,9.05
2019-02-05T20:19:40.774Z,8.51
2019-02-05T20:22:10.229Z,8.32
2019-02-05T20:24:39.585Z,8.59
2019-02-05T20:27:10.253Z,9.09
2019-02-05T20:29:39.666Z,9.02
2019-02-05T20:32:11.428Z,9.13
2019-02-05T20:34:40.771Z,9.10
2019-02-05T20:37:10.147Z,8.33
2019-02-05T20:39:39.499Z,7.82
2019-02-05T20:42:09.742Z,7.42
2019-02-05T20:44:39.149Z,7.21
2019-02-05T20:47:08.790Z,7.13
2019-02-05T20:49:38.132Z,2.61
2019-02-05T20:52:07.598Z,7.05
2019-02-05T20:54:37.074Z,6.99
2019-02-05T20:57:06.401Z,6.99
2019-02-05T20:59:35.781Z,6.88
2019-02-05T21:02:05.206Z,6.84
2019-02-05T21:04:35.503Z,6.78
2019-02-05T21:07:05.417Z,6.83
2019-02-05T21:09:34.773Z,6.87
2019-02-05T21:12:04.291Z,6.81
2019-02-05T21:14:33.665Z,6.72
2019-02-05T21:17:03.083Z,6.66
2019-02-05T21:19:32.780Z,6.59
2019-02-05T21:22:02.386Z,6.62
2019-02-05T21:24:31.990Z,6.73
2019-02-05T21:27:01.880Z,6.68
2019-02-05T21:29:32.711Z,6.67
2019-02-05T21:32:02.020Z,6.76
2019-02-05T21:34:36.175Z,6.67
2019-02-05T21:37:05.625Z,6.69
2019-02-05T21:39:34.929Z,6.70
2019-02-05T21:42:04.439Z,6.75
2019-02-05T21:44:33.805Z,6.81
2019-02-05T21:47:03.131Z,6.71
2019-02-05T21:49:32.741Z,6.64
2019-02-05T21:52:02.072Z,6.57
2019-02-05T21:54:31.435Z,6.64
2019-02-05T21:57:00.760Z,6.62
2019-02-05T21:59:30.095Z,6.64
2019-02-05T22:01:59.775Z,6.59
2019-02-05T22:04:29.145Z,6.62
2019-02-05T22:06:58.624Z,6.62
2019-02-05T22:09:28.168Z,6.72
2019-02-05T22:11:57.555Z,6.67
2019-02-05T22:14:26.970Z,6.75
2019-02-05T22:16:56.338Z,6.76
2019-02-05T22:19:26.875Z,6.85
2019-02-05T22:21:56.279Z,6.89
2019-02-05T22:24:25.662Z,6.76
2019-02-05T22:26:55.085Z,6.74
2019-02-05T22:29:24.397Z,6.81
2019-02-05T22:31:53.787Z,6.71
2019-02-05T22:34:23.897Z,6.62
2019-02-05T22:36:53.232Z,6.71
2019-02-05T22:39:25.164Z,6.85
2019-02-05T22:41:53.949Z,6.85
2019-02-05T22:44:23.325Z,6.76
2019-02-05T22:46:53.043Z,6.69
2019-02-05T22:49:22.388Z,6.58
2019-02-05T22:51:52.004Z,6.43
2019-02-05T22:54:21.351Z,6.38
2019-02-05T22:56:50.860Z,6.36
2019-02-05T22:59:20.482Z,6.56
2019-02-05T23:01:58.713Z,6.56
2019-02-05T23:05:09.189Z,6.55
2019-02-05T23:07:38.522Z,6.56
2019-02-05T23:10:38.719Z,6.55
2019-02-05T23:13:14.791Z,6.47
2019-02-05T23:15:46.662Z,6.34
2019-02-05T23:18:16.196Z,6.37
2019-02-05T23:20:45.632Z,6.36
2019-02-05T23:23:15.027Z,6.32
2019-02-05T23:25:44.475Z,6.26
2019-02-05T23:28:13.931Z,6.29
2019-02-05T23:30:43.793Z,6.24
2019-02-05T23:33:13.456Z,6.17
2019-02-05T23:35:42.868Z,6.02
2019-02-05T23:38:12.307Z,6.02
2019-02-05T23:40:41.714Z,5.92
2019-02-05T23:43:11.088Z,5.91
2019-02-05T23:45:40.418Z,5.87
2019-02-05T23:48:10.071Z,5.93
2019-02-05T23:50:39.432Z,5.89
2019-02-05T23:53:08.833Z,5.95
2019-02-05T23:55:38.172Z,5.92
2019-02-05T23:58:07.525Z,5.91
